Etusivu
METAR-TAF:

METAR-TAF

Lentoasemat :

Seinäjoki-Ilmajoki, Suomi

Seinäjoen lentoasema

Leveyspiiri: 62-41-37N, Pituuspiiri: 022-49-55E, korkeus merenpinnasta: 91 m

Tämänhetkinen sää

Tämä raportti tehtiin 16 minuuttia sitten, kello 09.50 UTC
Tuuli 7 kn etelästä/kaakosta, vaihdellen idän/kaakon ja etelän välillä
Lämpötila 7°C
Kosteus 93%
Ilmanpaine 1017 hPa
Näkyvyys 10 km tai enemmän
Hajonneita pilviä 2900 ft:n korkeudessa
Pilvistä 3800 ft:n korkeudessa
heikkoa sadetta

METAR: EFSI 270950Z AUTO 15007KT 120V190 9999 -RA BKN029 OVC038 07/06 Q1017

Aika: 13:06 (10:06 UTC)


TAF: puuttuu

Säähavainnot ja -ennusteet yli 4000 lentoasemalta (METAR- ja TAF-raportit).

Käytössä olevat sääasemat on merkitty karttaan keltaisilla ja punaisilla pisteillä.

Aseta hiiri pisteen päälle nähdäksesi sääaseman nimen.

Klikkaa sitten nähdäksesi säähavainnot ja -ennusteet.

Kartan vaihtaminen: klikkaa mustalla rastilla varustettuja vihreitä pisteitä, niin voit zoomata sisään; viivalla varustettua vihreää pistettä, niin voit zoomata ulos tai vihreitä nuolia, niin pääset viereisille kartoille.


METAR-TAF: